createdAt,value
2018-09-02T00:08:00.694Z,19.70
2018-09-02T00:23:34.839Z,24.23
2018-09-02T00:39:08.365Z,23.17
2018-09-02T00:54:42.742Z,21.33
2018-09-02T01:10:16.103Z,22.03
2018-09-02T01:25:49.269Z,21.10
2018-09-02T01:41:23.653Z,18.67
2018-09-02T01:56:56.775Z,18.13
2018-09-02T02:12:31.314Z,20.30
2018-09-02T02:28:05.600Z,18.50
2018-09-02T02:43:39.779Z,17.17
2018-09-02T02:59:14.134Z,18.00
2018-09-02T03:14:47.443Z,16.90
2018-09-02T03:30:22.035Z,16.73
2018-09-02T03:45:56.683Z,20.40
2018-09-02T04:01:31.138Z,24.83
2018-09-02T04:17:05.446Z,19.23
2018-09-02T04:32:39.115Z,19.43
2018-09-02T04:48:13.275Z,22.00
2018-09-02T05:03:47.060Z,24.23
2018-09-02T05:19:20.898Z,18.63
2018-09-02T05:34:55.068Z,23.10
2018-09-02T05:50:29.360Z,20.47
2018-09-02T06:06:03.656Z,21.87
2018-09-02T06:21:38.250Z,22.90
2018-09-02T06:37:12.243Z,19.20
2018-09-02T06:52:45.717Z,20.80
2018-09-02T07:08:20.604Z,22.23
2018-09-02T07:23:54.272Z,27.17
2018-09-02T07:39:29.017Z,26.07
2018-09-02T07:55:04.138Z,24.33
2018-09-02T08:10:38.298Z,22.30
2018-09-02T08:26:12.701Z,16.30
2018-09-02T08:41:47.163Z,19.03
2018-09-02T08:57:21.642Z,18.50
2018-09-02T09:12:55.973Z,10.63
2018-09-02T09:28:29.168Z,15.93
2018-09-02T09:44:02.491Z,10.03
2018-09-02T09:59:36.119Z,6.80
2018-09-02T10:15:10.383Z,10.77
2018-09-02T10:30:43.535Z,9.83
2018-09-02T10:46:17.185Z,8.37
2018-09-02T11:01:50.347Z,7.93
2018-09-02T11:17:24.461Z,8.27
2018-09-02T11:32:59.516Z,7.70
2018-09-02T11:48:33.102Z,7.93
2018-09-02T12:04:07.235Z,8.07
2018-09-02T12:19:41.258Z,7.50
2018-09-02T12:35:15.431Z,7.73
2018-09-02T12:50:49.769Z,8.40
2018-09-02T13:06:23.191Z,6.40
2018-09-02T13:21:58.126Z,12.67
2018-09-02T13:37:32.239Z,11.47
2018-09-02T13:53:05.971Z,7.77
2018-09-02T14:08:39.824Z,11.37
2018-09-02T14:24:13.858Z,11.87
2018-09-02T14:39:48.259Z,10.60
2018-09-02T14:55:31.002Z,13.90
2018-09-02T15:11:05.185Z,10.33
2018-09-02T15:26:39.698Z,11.77
2018-09-02T15:42:14.374Z,13.00
2018-09-02T15:57:47.522Z,11.37
2018-09-02T16:13:21.092Z,10.73
2018-09-02T16:28:47.176Z,13.53
2018-09-02T16:43:51.059Z,35.67
2018-09-02T16:58:55.506Z,21.63
2018-09-02T17:13:59.344Z,20.93
2018-09-02T17:29:03.247Z,16.77
2018-09-02T17:44:07.197Z,16.03
2018-09-02T17:59:11.123Z,15.87
2018-09-02T18:14:15.512Z,15.20
2018-09-02T18:29:19.353Z,16.80
2018-09-02T18:44:23.107Z,22.00
2018-09-02T18:59:27.036Z,13.00
2018-09-02T19:14:30.924Z,12.60
2018-09-02T19:29:34.807Z,16.20
2018-09-02T19:44:38.632Z,14.03
2018-09-02T19:59:42.430Z,14.37
2018-09-02T20:14:46.258Z,18.87
2018-09-02T20:29:50.071Z,14.77
2018-09-02T20:44:53.893Z,13.83
2018-09-02T20:59:57.696Z,20.23
2018-09-02T21:15:01.521Z,12.40
2018-09-02T21:30:05.486Z,16.30
2018-09-02T21:45:09.899Z,15.43
2018-09-02T22:00:15.611Z,12.60
2018-09-02T22:15:19.538Z,21.90
2018-09-02T22:30:24.103Z,13.73
2018-09-02T22:45:27.857Z,18.33
2018-09-02T23:00:31.630Z,18.50
2018-09-02T23:15:35.386Z,17.47
2018-09-02T23:30:39.500Z,16.97
2018-09-02T23:45:43.301Z,16.50
